< < Back
Terminal Aerodrome Forecast


Current Version              Previous Versions:   1  2  3  4  5  6  7  8  9  

Terminal Aerodrome Forecast

827
FTUS42 KMLB 311558 AAC
TAFDAB
TAF AMD

1=

Latest METAR

659
SAUS80 KWBC 312100 CCA
MTRDAB
METAR KDAB 312053Z 25006KT 10SM FEW020 SCT050 SCT095 OVC150 28/24 A2989
RMK AO2 LTG DSNT SW SLP120 CB DSNT SW 60000 T02830244
56013


USA.gov is the U.S. government's official web portal to all federal, state and local government web resources and services.